Terminal Aerodrome Forecast
Issued by NWS

Home | Current Version | Previous Version | Graphics & Text | Print | Product List | Glossary On
Versions: 1 2 3 4 5 6 7 8 9 10 11 12 13 14 15 16 17 18
082
FTUS43 KTOP 030104 AAA
TAFMHK
TAF AMD
KMHK 030104Z 0301/0324 26016G26KT P6SM OVC012
      TEMPO 0301/0305 6SM -SN BKN009
     FM030800 32015G28KT P6SM BKN015
     FM031700 32014KT P6SM SCT020=

USA.gov is the U.S. government's official web portal to all federal, state and local government web resources and services.